TVY weather

Bolinder Field Tooele Valley Airport
Tooele, Utah, United States

Public forecast

Using degrees Fahrenheit for public forecast. Weather courtesy of forecast.io.

METAR (pilot weather report)

Retrieved 2019/07/16 03:35 UTC (15 minutes ago):

KTVY 160335Z AUTO 19005KT 10SM CLR 21/06 A2993 RMK AO2

TAF (pilot weather forecast)

Forecast is more than 12 hours old.

Closest forecast is Salt Lake City International Airport, 20.0 nm (37.0 km) ENE. Retrieved 2019/07/15 00:22 UTC (1 day ago):

TAF KSLC 152320Z 1600/1706 30008KT P6SM SCT150 FM160400 14006KT P6SM SKC FM161900 32008KT P6SM SCT120